Time;durP1;ratioP1;P1;durP2;ratioP2;P2;SDS_P1;SDS_P2;PMS_P1;PMS_P2;Temp;Humidity;BMP_temperature;BMP_pressure;BME280_temperature;BME280_humidity;BME280_pressure;Samples;Min_cycle;Max_cycle;Signal;HPM_P1;HPM_P2
2023/11/20 00:01:44;;;;;;;;;;;16.00;93.50;;;;;;4033304;29;20492;-58
2023/11/20 00:04:25;;;;;;;;;;;16.00;93.50;;;;;;4028332;29;19935;-46
2023/11/20 00:07:06;;;;;;;;;;;15.90;93.50;;;;;;4028897;29;19939;-48
2023/11/20 00:09:46;;;;;;;;;;;15.90;93.50;;;;;;4017130;29;19959;-47
2023/11/20 00:12:27;;;;;;;;;;;16.00;93.50;;;;;;4040328;29;19943;-46
2023/11/20 00:15:11;;;;;;;;;;;15.90;93.50;;;;;;4037634;29;20439;-58
2023/11/20 00:17:51;;;;;;;;;;;15.90;93.50;;;;;;4028300;29;19954;-58
2023/11/20 00:20:32;;;;;;;;;;;15.90;93.60;;;;;;4029155;29;19934;-58
2023/11/20 00:23:13;;;;;;;;;;;16.00;93.50;;;;;;4003029;29;19997;-58
2023/11/20 00:25:54;;;;;;;;;;;15.90;93.50;;;;;;4032151;29;19938;-58
2023/11/20 00:28:35;;;;;;;;;;;15.90;93.50;;;;;;4043281;29;20489;-57
2023/11/20 00:31:17;;;;;;;;;;;15.90;93.50;;;;;;4039804;29;20091;-58
2023/11/20 00:33:58;;;;;;;;;;;15.90;93.50;;;;;;4019260;29;20454;-58
2023/11/20 00:36:39;;;;;;;;;;;15.90;93.50;;;;;;4032546;29;19971;-58
2023/11/20 00:39:20;;;;;;;;;;;15.90;93.90;;;;;;4044618;29;20493;-58
2023/11/20 00:42:01;;;;;;;;;;;15.90;93.60;;;;;;4017750;29;20383;-58
2023/11/20 00:44:43;;;;;;;;;;;15.90;93.60;;;;;;4029675;29;19987;-46
2023/11/20 00:47:26;;;;;;;;;;;15.90;94.00;;;;;;4030735;29;19982;-48
2023/11/20 00:50:07;;;;;;;;;;;15.90;93.60;;;;;;4029037;29;19939;-48
2023/11/20 00:52:48;;;;;;;;;;;15.90;93.60;;;;;;4016455;29;20014;-46
2023/11/20 00:55:29;;;;;;;;;;;15.90;94.00;;;;;;4027625;29;19934;-47
2023/11/20 00:58:10;;;;;;;;;;;15.90;93.70;;;;;;4018167;29;19938;-47
2023/11/20 01:00:53;;;;;;;;;;;15.90;93.70;;;;;;4016891;29;19938;-58
2023/11/20 01:03:37;;;;;;;;;;;15.90;93.70;;;;;;4016425;29;19938;-58
2023/11/20 01:06:18;;;;;;;;;;;15.90;93.70;;;;;;4006273;29;19939;-58
2023/11/20 01:08:59;;;;;;;;;;;15.90;93.70;;;;;;4016640;29;19987;-46
2023/11/20 01:11:42;;;;;;;;;;;15.90;93.70;;;;;;4028212;29;20408;-46
2023/11/20 01:14:23;;;;;;;;;;;15.90;93.80;;;;;;4021203;29;19934;-58
2023/11/20 01:17:04;;;;;;;;;;;15.80;93.70;;;;;;4043754;29;20458;-58
2023/11/20 01:19:46;;;;;;;;;;;15.80;93.80;;;;;;4042567;29;20002;-58
2023/11/20 01:22:27;;;;;;;;;;;15.80;93.80;;;;;;4016399;29;19986;-58
2023/11/20 01:25:08;;;;;;;;;;;15.80;94.10;;;;;;4017466;29;19943;-58
2023/11/20 01:27:49;;;;;;;;;;;15.80;93.80;;;;;;4027908;29;20288;-58
2023/11/20 01:30:30;;;;;;;;;;;15.80;93.80;;;;;;4028710;29;20481;-46
2023/11/20 01:33:10;;;;;;;;;;;15.80;93.80;;;;;;4017156;29;20006;-47
2023/11/20 01:35:56;;;;;;;;;;;15.80;93.80;;;;;;4043083;29;19938;-46
2023/11/20 01:38:36;;;;;;;;;;;15.80;93.80;;;;;;4027954;29;19935;-57
2023/11/20 01:41:17;;;;;;;;;;;15.80;94.20;;;;;;4033386;29;20080;-57
2023/11/20 01:43:58;;;;;;;;;;;15.80;93.90;;;;;;4032079;29;19998;-46
2023/11/20 01:46:39;;;;;;;;;;;15.80;93.80;;;;;;4031996;29;19933;-47
2023/11/20 01:49:20;;;;;;;;;;;15.80;93.90;;;;;;4041041;29;19933;-46
2023/11/20 01:52:03;;;;;;;;;;;15.80;93.90;;;;;;4033671;29;19939;-58
2023/11/20 01:54:46;;;;;;;;;;;15.80;93.90;;;;;;4018509;29;20031;-59
2023/11/20 01:57:27;;;;;;;;;;;15.80;93.90;;;;;;4026335;29;20401;-59
2023/11/20 02:00:10;;;;;;;;;;;15.80;93.90;;;;;;4004806;29;19935;-58
2023/11/20 02:02:57;;;;;;;;;;;15.80;93.90;;;;;;4026426;29;19987;-58
2023/11/20 02:05:38;;;;;;;;;;;15.80;93.90;;;;;;4018676;29;20063;-58
2023/11/20 02:08:21;;;;;;;;;;;15.80;93.90;;;;;;4030853;29;20023;-57
2023/11/20 02:11:04;;;;;;;;;;;15.80;93.90;;;;;;4025664;29;20068;-58
2023/11/20 02:13:49;;;;;;;;;;;15.80;93.90;;;;;;4015435;29;19935;-57
2023/11/20 02:16:32;;;;;;;;;;;15.80;93.90;;;;;;4018768;29;19938;-58
2023/11/20 02:19:13;;;;;;;;;;;15.80;93.90;;;;;;4029031;29;19939;-57
2023/11/20 02:21:54;;;;;;;;;;;15.80;94.30;;;;;;4015131;29;19935;-57
2023/11/20 02:24:37;;;;;;;;;;;15.80;94.00;;;;;;4016301;29;19935;-58
2023/11/20 02:27:33;;;;;;;;;;;15.80;94.00;;;;;;4024064;29;19978;-58
2023/11/20 02:30:16;;;;;;;;;;;15.70;94.00;;;;;;4015016;29;19942;-57
2023/11/20 02:32:56;;;;;;;;;;;15.70;94.00;;;;;;4027724;29;19935;-59
2023/11/20 02:35:38;;;;;;;;;;;15.80;94.00;;;;;;4027672;29;19935;-59
2023/11/20 02:38:19;;;;;;;;;;;15.70;94.40;;;;;;4042188;29;19935;-58
2023/11/20 02:41:00;;;;;;;;;;;15.80;94.10;;;;;;3992440;29;20022;-57
2023/11/20 02:43:41;;;;;;;;;;;15.70;94.00;;;;;;4014292;29;19935;-58
2023/11/20 02:46:22;;;;;;;;;;;15.70;94.10;;;;;;4027354;29;19935;-58
2023/11/20 02:49:04;;;;;;;;;;;15.70;94.10;;;;;;4014268;29;20001;-58
2023/11/20 02:51:45;;;;;;;;;;;15.70;94.10;;;;;;4015498;29;19939;-59
2023/11/20 02:54:27;;;;;;;;;;;15.70;94.10;;;;;;4023982;29;20334;-59
2023/11/20 02:57:08;;;;;;;;;;;15.70;94.20;;;;;;4025769;29;19939;-59
2023/11/20 02:59:49;;;;;;;;;;;15.70;94.20;;;;;;4015791;29;20030;-59
2023/11/20 03:02:31;;;;;;;;;;;15.70;94.20;;;;;;4016052;29;20030;-58
2023/11/20 03:05:12;;;;;;;;;;;15.70;94.20;;;;;;4035755;29;20598;-59
2023/11/20 03:07:52;;;;;;;;;;;15.70;94.20;;;;;;4042514;29;19935;-59
2023/11/20 03:10:33;;;;;;;;;;;15.70;94.20;;;;;;4019155;29;19955;-59
2023/11/20 03:13:14;;;;;;;;;;;15.70;94.20;;;;;;4035398;29;19934;-59
2023/11/20 03:15:56;;;;;;;;;;;15.70;94.20;;;;;;4027434;29;19935;-59
2023/11/20 03:18:38;;;;;;;;;;;15.70;94.20;;;;;;4027449;29;19935;-58
2023/11/20 03:21:19;;;;;;;;;;;15.70;94.60;;;;;;4016919;29;20358;-59
2023/11/20 03:24:00;;;;;;;;;;;15.70;94.20;;;;;;4041926;29;19982;-58
2023/11/20 03:26:41;;;;;;;;;;;15.70;94.20;;;;;;4041985;29;19935;-57
2023/11/20 03:29:22;;;;;;;;;;;15.70;94.20;;;;;;4041599;29;19934;-58
2023/11/20 03:32:05;;;;;;;;;;;15.70;94.20;;;;;;4042740;29;20409;-48
2023/11/20 03:34:47;;;;;;;;;;;15.70;94.20;;;;;;4030078;29;19938;-52
2023/11/20 03:37:28;;;;;;;;;;;15.70;94.20;;;;;;4042116;29;19935;-48
2023/11/20 03:40:09;;;;;;;;;;;15.70;94.20;;;;;;4027107;29;20402;-51
2023/11/20 03:42:50;;;;;;;;;;;15.70;94.30;;;;;;4015278;29;20071;-49
2023/11/20 03:45:31;;;;;;;;;;;15.70;94.30;;;;;;4026973;29;19935;-50
2023/11/20 03:48:12;;;;;;;;;;;15.70;94.30;;;;;;4027366;29;19935;-50
2023/11/20 03:50:54;;;;;;;;;;;15.70;94.30;;;;;;4015717;29;20045;-49
2023/11/20 03:53:35;;;;;;;;;;;15.70;94.30;;;;;;4027031;29;20388;-48
2023/11/20 03:56:16;;;;;;;;;;;15.70;94.30;;;;;;4018472;29;19954;-46
2023/11/20 03:58:57;;;;;;;;;;;15.70;94.30;;;;;;4015262;29;19938;-47
2023/11/20 04:01:38;;;;;;;;;;;15.70;94.40;;;;;;4026873;29;19935;-47
2023/11/20 04:04:18;;;;;;;;;;;15.60;94.30;;;;;;4027401;29;20394;-47
2023/11/20 04:07:01;;;;;;;;;;;15.70;94.40;;;;;;4026947;29;20023;-48
2023/11/20 04:09:42;;;;;;;;;;;15.70;94.40;;;;;;4026168;29;19934;-46
2023/11/20 04:12:24;;;;;;;;;;;15.60;94.30;;;;;;4026621;29;20095;-47
2023/11/20 04:15:06;;;;;;;;;;;15.70;94.40;;;;;;4004124;29;19996;-49
2023/11/20 04:17:48;;;;;;;;;;;15.70;94.80;;;;;;4024894;29;20440;-50
2023/11/20 04:20:32;;;;;;;;;;;15.70;94.40;;;;;;4020313;29;20411;-50
2023/11/20 04:23:15;;;;;;;;;;;15.60;94.40;;;;;;4007577;29;19938;-49
2023/11/20 04:25:56;;;;;;;;;;;15.70;94.40;;;;;;4029458;29;19939;-47
2023/11/20 04:28:37;;;;;;;;;;;15.60;94.40;;;;;;4040298;29;19935;-48
2023/11/20 04:31:18;;;;;;;;;;;15.70;94.40;;;;;;4043918;29;19935;-47
2023/11/20 04:33:59;;;;;;;;;;;15.60;94.40;;;;;;4033175;29;19934;-47
2023/11/20 04:36:40;;;;;;;;;;;15.60;94.40;;;;;;4038580;29;19975;-48
2023/11/20 04:39:23;;;;;;;;;;;15.70;94.50;;;;;;4023181;29;19938;-47
2023/11/20 04:42:06;;;;;;;;;;;15.60;94.40;;;;;;4027339;29;24202;-46
2023/11/20 04:44:46;;;;;;;;;;;15.70;94.50;;;;;;4027966;29;19938;-48
2023/11/20 04:47:27;;;;;;;;;;;15.60;94.50;;;;;;4028257;29;20383;-48
2023/11/20 04:50:09;;;;;;;;;;;15.60;94.50;;;;;;4017751;29;19979;-49
2023/11/20 04:52:50;;;;;;;;;;;15.60;94.50;;;;;;4028932;29;20470;-51
2023/11/20 04:55:33;;;;;;;;;;;15.60;94.50;;;;;;4028733;29;19935;-49
2023/11/20 04:58:13;;;;;;;;;;;15.60;94.50;;;;;;4028886;29;19939;-46
2023/11/20 05:00:54;;;;;;;;;;;15.60;94.50;;;;;;4030143;29;19935;-46
2023/11/20 05:03:36;;;;;;;;;;;15.60;94.50;;;;;;4029045;29;20295;-49
2023/11/20 05:06:17;;;;;;;;;;;15.60;94.90;;;;;;4029112;29;20295;-47
2023/11/20 05:08:57;;;;;;;;;;;15.60;94.50;;;;;;4029005;29;19939;-47
2023/11/20 05:11:41;;;;;;;;;;;15.60;94.50;;;;;;4028641;29;19951;-47
2023/11/20 05:14:23;;;;;;;;;;;15.60;94.50;;;;;;4028188;29;19939;-48
2023/11/20 05:17:03;;;;;;;;;;;15.60;94.60;;;;;;4016856;29;19954;-47
2023/11/20 05:19:45;;;;;;;;;;;15.60;94.50;;;;;;4041203;29;20079;-46
2023/11/20 05:22:28;;;;;;;;;;;15.60;94.60;;;;;;4043658;29;20005;-48
2023/11/20 05:25:09;;;;;;;;;;;15.60;94.60;;;;;;4043518;29;19934;-46
2023/11/20 05:27:52;;;;;;;;;;;15.50;94.50;;;;;;4044058;29;20035;-46
2023/11/20 05:30:32;;;;;;;;;;;15.50;94.60;;;;;;4028736;29;19951;-45
2023/11/20 05:33:13;;;;;;;;;;;15.60;94.60;;;;;;4028942;29;19965;-45
2023/11/20 05:35:54;;;;;;;;;;;15.50;94.60;;;;;;4028214;29;20010;-47
2023/11/20 05:38:35;;;;;;;;;;;15.60;94.60;;;;;;4028665;29;19935;-45
2023/11/20 05:41:16;;;;;;;;;;;15.50;94.60;;;;;;4017108;29;19935;-47
2023/11/20 05:43:58;;;;;;;;;;;15.50;94.60;;;;;;4028284;29;19934;-46
2023/11/20 05:46:38;;;;;;;;;;;15.50;94.60;;;;;;4028652;29;19935;-48
2023/11/20 05:49:19;;;;;;;;;;;15.50;94.60;;;;;;4031913;29;19954;-49
2023/11/20 05:52:00;;;;;;;;;;;15.50;94.60;;;;;;4042502;29;20137;-46
2023/11/20 05:54:40;;;;;;;;;;;15.50;95.00;;;;;;4042771;29;19974;-46
2023/11/20 05:57:22;;;;;;;;;;;15.50;94.60;;;;;;4028210;29;20041;-49
2023/11/20 06:00:08;;;;;;;;;;;15.50;94.60;;;;;;4027878;29;20296;-45
2023/11/20 06:02:51;;;;;;;;;;;15.50;94.60;;;;;;4027798;29;19939;-48
2023/11/20 06:05:32;;;;;;;;;;;15.50;94.60;;;;;;4027357;29;19934;-48
2023/11/20 06:08:13;;;;;;;;;;;15.50;95.00;;;;;;4027790;29;19947;-46
2023/11/20 06:10:54;;;;;;;;;;;15.50;94.60;;;;;;4027851;29;20063;-48
2023/11/20 06:13:38;;;;;;;;;;;15.50;94.60;;;;;;4027768;29;19934;-49
2023/11/20 06:16:21;;;;;;;;;;;15.50;95.00;;;;;;4024481;29;19942;-50
2023/11/20 06:19:01;;;;;;;;;;;15.40;94.60;;;;;;4043291;29;20023;-48
2023/11/20 06:21:46;;;;;;;;;;;15.40;94.60;;;;;;4042647;29;19938;-46
2023/11/20 06:24:26;;;;;;;;;;;15.50;94.70;;;;;;4029444;29;19935;-47
2023/11/20 06:27:07;;;;;;;;;;;15.50;94.70;;;;;;4031978;29;19956;-46
2023/11/20 06:29:48;;;;;;;;;;;15.50;94.60;;;;;;4027821;29;19935;-48
2023/11/20 06:32:31;;;;;;;;;;;15.60;94.50;;;;;;4028553;29;20095;-46
2023/11/20 06:35:11;;;;;;;;;;;15.60;94.50;;;;;;4042333;29;19983;-46
2023/11/20 06:37:52;;;;;;;;;;;15.60;94.40;;;;;;4043329;29;19934;-46
2023/11/20 06:40:34;;;;;;;;;;;15.60;94.40;;;;;;4031068;29;19935;-46
2023/11/20 06:43:14;;;;;;;;;;;15.60;94.30;;;;;;4042804;29;19935;-49
2023/11/20 06:45:56;;;;;;;;;;;15.70;94.40;;;;;;4042853;29;19939;-54
2023/11/20 06:48:38;;;;;;;;;;;15.70;94.50;;;;;;4037028;29;19938;-53
2023/11/20 06:51:18;;;;;;;;;;;15.70;94.40;;;;;;4025866;29;19939;-53
2023/11/20 06:54:00;;;;;;;;;;;15.80;94.30;;;;;;4025773;29;19938;-52
2023/11/20 06:56:41;;;;;;;;;;;15.70;94.20;;;;;;4030005;29;20275;-50
2023/11/20 06:59:22;;;;;;;;;;;15.80;94.30;;;;;;4031435;29;19939;-54
2023/11/20 07:02:04;;;;;;;;;;;15.80;94.30;;;;;;4027024;29;19999;-54
2023/11/20 07:04:46;;;;;;;;;;;15.80;94.30;;;;;;4026488;29;19935;-55
2023/11/20 07:07:30;;;;;;;;;;;15.80;94.20;;;;;;4026720;29;19938;-55
2023/11/20 07:10:11;;;;;;;;;;;15.80;94.10;;;;;;4024810;29;19939;-54
2023/11/20 07:12:53;;;;;;;;;;;15.80;94.10;;;;;;4025933;29;19950;-52
2023/11/20 07:15:34;;;;;;;;;;;15.80;94.00;;;;;;4025976;29;19935;-52
2023/11/20 07:18:15;;;;;;;;;;;15.80;94.40;;;;;;4026005;29;20053;-52
2023/11/20 07:20:57;;;;;;;;;;;15.80;94.00;;;;;;4024247;29;20398;-52
2023/11/20 07:23:38;;;;;;;;;;;15.80;94.00;;;;;;4025726;29;19955;-50
2023/11/20 07:26:19;;;;;;;;;;;15.80;94.10;;;;;;4026271;29;20284;-53
2023/11/20 07:28:59;;;;;;;;;;;15.80;94.10;;;;;;4026780;29;20063;-50
2023/11/20 07:31:40;;;;;;;;;;;15.80;94.10;;;;;;4014459;29;19979;-50
2023/11/20 07:34:21;;;;;;;;;;;15.80;94.10;;;;;;4026741;29;20035;-53
2023/11/20 07:37:04;;;;;;;;;;;15.80;94.10;;;;;;4026659;29;20060;-54
2023/11/20 07:39:45;;;;;;;;;;;15.90;94.00;;;;;;4026365;29;19976;-51
2023/11/20 07:42:25;;;;;;;;;;;15.90;93.90;;;;;;4026513;29;19939;-53
2023/11/20 07:45:08;;;;;;;;;;;15.90;93.80;;;;;;4026635;29;20292;-55
2023/11/20 07:47:49;;;;;;;;;;;15.90;93.80;;;;;;4016708;29;20027;-56
2023/11/20 07:50:30;;;;;;;;;;;16.00;93.80;;;;;;4026561;29;20019;-57
2023/11/20 07:53:12;;;;;;;;;;;16.00;93.80;;;;;;4026892;29;19934;-57
2023/11/20 07:55:53;;;;;;;;;;;16.00;93.90;;;;;;4015384;29;19939;-57
2023/11/20 07:58:34;;;;;;;;;;;15.90;93.90;;;;;;4029663;29;19935;-57
2023/11/20 08:01:15;;;;;;;;;;;15.90;94.40;;;;;;4035252;29;19935;-56
2023/11/20 08:03:56;;;;;;;;;;;15.90;94.10;;;;;;4030350;29;19950;-57
2023/11/20 08:06:36;;;;;;;;;;;15.90;94.30;;;;;;4032603;29;19939;-57
2023/11/20 08:09:19;;;;;;;;;;;15.90;94.30;;;;;;4045001;29;19939;-57
2023/11/20 08:12:00;;;;;;;;;;;15.90;94.30;;;;;;4044370;29;20014;-57
2023/11/20 08:14:41;;;;;;;;;;;15.90;94.30;;;;;;4045097;29;20283;-57
2023/11/20 08:17:21;;;;;;;;;;;16.00;94.40;;;;;;4032667;29;20022;-57
2023/11/20 08:20:06;;;;;;;;;;;16.00;94.40;;;;;;4021241;29;19935;-57
2023/11/20 08:22:46;;;;;;;;;;;16.00;94.40;;;;;;4039349;29;19950;-58
2023/11/20 08:25:28;;;;;;;;;;;15.90;94.80;;;;;;4045003;29;20036;-49
2023/11/20 08:28:09;;;;;;;;;;;15.90;94.40;;;;;;4017311;29;20400;-50
2023/11/20 08:30:49;;;;;;;;;;;15.90;94.30;;;;;;4037390;29;19938;-47
2023/11/20 08:33:30;;;;;;;;;;;15.90;94.70;;;;;;4028198;29;19939;-46
2023/11/20 08:36:12;;;;;;;;;;;15.90;94.30;;;;;;4029243;29;20307;-46
2023/11/20 08:38:52;;;;;;;;;;;15.80;94.30;;;;;;4028519;29;19934;-47
2023/11/20 08:41:35;;;;;;;;;;;15.80;94.30;;;;;;4042372;29;19938;-46
2023/11/20 08:44:16;;;;;;;;;;;15.80;94.40;;;;;;4044138;29;19935;-46
2023/11/20 08:46:58;;;;;;;;;;;15.80;94.40;;;;;;4043951;29;19934;-46
2023/11/20 08:49:39;;;;;;;;;;;15.80;94.50;;;;;;4044555;29;19937;-47
2023/11/20 08:52:20;;;;;;;;;;;15.70;94.60;;;;;;4031472;29;19967;-48
2023/11/20 08:55:01;;;;;;;;;;;15.70;94.60;;;;;;4028055;29;19983;-49
2023/11/20 08:57:43;;;;;;;;;;;15.70;94.60;;;;;;4029896;29;19935;-47
2023/11/20 09:00:24;;;;;;;;;;;15.70;94.60;;;;;;4038785;29;19938;-49
2023/11/20 09:03:05;;;;;;;;;;;15.60;94.60;;;;;;4043874;29;20026;-47
2023/11/20 09:05:45;;;;;;;;;;;15.60;94.60;;;;;;4027878;29;19938;-46
2023/11/20 09:08:26;;;;;;;;;;;15.60;94.60;;;;;;4027219;29;20064;-46
2023/11/20 09:11:08;;;;;;;;;;;15.60;94.60;;;;;;4033369;29;19946;-51
2023/11/20 09:13:50;;;;;;;;;;;15.60;94.60;;;;;;4043852;29;19982;-48
2023/11/20 09:16:31;;;;;;;;;;;15.60;94.70;;;;;;4032336;29;19938;-47
2023/11/20 09:19:12;;;;;;;;;;;15.60;94.70;;;;;;4043517;29;19934;-50
2023/11/20 09:21:52;;;;;;;;;;;15.50;94.80;;;;;;4043773;29;19939;-48
2023/11/20 09:24:33;;;;;;;;;;;15.50;94.80;;;;;;4030074;29;19983;-46
2023/11/20 09:27:15;;;;;;;;;;;15.50;94.80;;;;;;4028074;29;19935;-57
2023/11/20 09:29:57;;;;;;;;;;;15.50;95.20;;;;;;4030551;29;20080;-57
2023/11/20 09:32:38;;;;;;;;;;;15.50;94.80;;;;;;4029016;29;20620;-57
2023/11/20 09:35:20;;;;;;;;;;;15.50;94.90;;;;;;4028589;29;20396;-57
2023/11/20 09:38:03;;;;;;;;;;;15.50;94.90;;;;;;4018235;29;20076;-57
2023/11/20 09:40:45;;;;;;;;;;;15.40;95.20;;;;;;4028411;29;19980;-57
2023/11/20 09:43:28;;;;;;;;;;;15.50;94.90;;;;;;4028545;29;19935;-56
2023/11/20 09:46:11;;;;;;;;;;;15.40;94.90;;;;;;4028365;29;20893;-57
2023/11/20 09:48:53;;;;;;;;;;;15.40;94.90;;;;;;4029011;29;20019;-57
2023/11/20 09:51:36;;;;;;;;;;;15.40;94.80;;;;;;4030078;29;19939;-57
2023/11/20 09:54:17;;;;;;;;;;;15.40;95.20;;;;;;4035942;29;20011;-49
2023/11/20 09:56:59;;;;;;;;;;;15.40;94.80;;;;;;4032537;29;20429;-50
2023/11/20 09:59:39;;;;;;;;;;;15.40;94.80;;;;;;4026263;29;19934;-48
2023/11/20 10:02:21;;;;;;;;;;;15.30;94.80;;;;;;4037945;29;19938;-51
2023/11/20 10:05:03;;;;;;;;;;;15.30;94.80;;;;;;4027775;29;19970;-49
2023/11/20 10:07:44;;;;;;;;;;;15.30;94.80;;;;;;4037064;29;19934;-48
2023/11/20 10:10:26;;;;;;;;;;;15.30;94.80;;;;;;4036245;29;19934;-46
2023/11/20 10:13:08;;;;;;;;;;;15.30;94.80;;;;;;4027930;29;20040;-46
2023/11/20 10:15:49;;;;;;;;;;;15.30;94.80;;;;;;4015978;29;20569;-46
2023/11/20 10:18:31;;;;;;;;;;;15.30;94.80;;;;;;4029398;29;20040;-48
2023/11/20 10:21:12;;;;;;;;;;;15.30;94.80;;;;;;4043100;29;19962;-49
2023/11/20 10:23:54;;;;;;;;;;;15.30;94.80;;;;;;4033569;29;20083;-46
2023/11/20 10:26:35;;;;;;;;;;;15.30;94.80;;;;;;4027454;29;19938;-46
2023/11/20 10:29:16;;;;;;;;;;;15.30;94.80;;;;;;4029555;29;19934;-48
2023/11/20 10:32:01;;;;;;;;;;;15.30;94.80;;;;;;4034779;29;19935;-51
2023/11/20 10:34:44;;;;;;;;;;;15.30;95.20;;;;;;4028282;29;19998;-45
2023/11/20 10:37:25;;;;;;;;;;;15.20;94.80;;;;;;4026969;29;20040;-49
2023/11/20 10:40:07;;;;;;;;;;;15.30;94.90;;;;;;4027559;29;19983;-48
2023/11/20 10:42:48;;;;;;;;;;;15.30;94.80;;;;;;4027433;29;19974;-47
2023/11/20 10:45:29;;;;;;;;;;;15.30;94.90;;;;;;4019386;29;19948;-48
2023/11/20 10:48:11;;;;;;;;;;;15.30;94.90;;;;;;4027391;29;19934;-52
2023/11/20 10:50:57;;;;;;;;;;;15.20;94.90;;;;;;4027119;29;20023;-51
2023/11/20 10:53:39;;;;;;;;;;;15.20;94.80;;;;;;4049441;29;19934;-50
2023/11/20 10:56:20;;;;;;;;;;;15.20;94.80;;;;;;4025486;29;20092;-47
2023/11/20 10:59:01;;;;;;;;;;;15.20;94.90;;;;;;4025596;29;19935;-47
2023/11/20 11:01:42;;;;;;;;;;;15.20;95.30;;;;;;4018187;29;19939;-49
2023/11/20 11:04:24;;;;;;;;;;;15.20;94.90;;;;;;4018452;29;19938;-47
2023/11/20 11:07:07;;;;;;;;;;;15.20;94.90;;;;;;4027155;29;20015;-46
2023/11/20 11:09:48;;;;;;;;;;;15.20;94.90;;;;;;4039214;29;19938;-45
2023/11/20 11:12:31;;;;;;;;;;;15.20;94.90;;;;;;4041804;29;20067;-52
2023/11/20 11:15:13;;;;;;;;;;;15.20;94.90;;;;;;4040218;29;19944;-53
2023/11/20 11:17:56;;;;;;;;;;;15.20;94.90;;;;;;4034151;29;19939;-54
2023/11/20 11:20:42;;;;;;;;;;;15.20;95.00;;;;;;4015363;29;19934;-54
2023/11/20 11:23:28;;;;;;;;;;;15.20;95.00;;;;;;4027294;29;20009;-54
2023/11/20 11:26:18;;;;;;;;;;;15.20;95.10;;;;;;4035611;29;20022;-57
2023/11/20 11:29:01;;;;;;;;;;;15.20;95.10;;;;;;4042446;29;19939;-56
2023/11/20 11:31:46;;;;;;;;;;;15.30;95.60;;;;;;4030993;29;19982;-56
2023/11/20 11:34:41;;;;;;;;;;;15.20;95.20;;;;;;4045383;29;20398;-55
2023/11/20 11:37:26;;;;;;;;;;;15.30;95.20;;;;;;4029302;29;20288;-54
2023/11/20 11:40:15;;;;;;;;;;;15.30;95.20;;;;;;4030219;29;20375;-57
2023/11/20 11:43:00;;;;;;;;;;;15.30;95.20;;;;;;4029192;29;19935;-47
2023/11/20 11:45:44;;;;;;;;;;;15.30;95.10;;;;;;4025892;29;19938;-47
2023/11/20 11:48:26;;;;;;;;;;;15.30;95.20;;;;;;4043513;29;19939;-46
2023/11/20 11:51:19;;;;;;;;;;;15.30;95.10;;;;;;4034156;29;20370;-47
2023/11/20 11:54:15;;;;;;;;;;;15.30;95.20;;;;;;4033547;29;19937;-50
2023/11/20 11:57:01;;;;;;;;;;;15.30;95.10;;;;;;4044765;29;19934;-46
2023/11/20 11:59:43;;;;;;;;;;;15.30;95.20;;;;;;4035954;29;20073;-48
2023/11/20 12:02:52;;;;;;;;;;;15.30;95.10;;;;;;4029708;29;20096;-47
2023/11/20 12:05:33;;;;;;;;;;;15.30;95.20;;;;;;4028452;29;19935;-45
2023/11/20 12:08:13;;;;;;;;;;;15.30;95.20;;;;;;4029696;29;20333;-49
2023/11/20 12:10:55;;;;;;;;;;;15.30;95.20;;;;;;4029066;29;19935;-47
2023/11/20 12:13:57;;;;;;;;;;;15.30;95.50;;;;;;4017454;29;20340;-47
2023/11/20 12:16:39;;;;;;;;;;;15.30;95.20;;;;;;4030606;29;19972;-47
2023/11/20 12:19:20;;;;;;;;;;;15.30;95.10;;;;;;4033385;29;19950;-45
2023/11/20 12:22:01;;;;;;;;;;;15.30;95.20;;;;;;4032317;29;19983;-46
2023/11/20 12:24:41;;;;;;;;;;;15.30;95.20;;;;;;4029054;29;20071;-46
2023/11/20 12:27:22;;;;;;;;;;;15.30;95.10;;;;;;4031744;29;20284;-46
2023/11/20 12:30:05;;;;;;;;;;;15.30;95.20;;;;;;4034376;29;20288;-48
2023/11/20 12:32:46;;;;;;;;;;;15.30;95.10;;;;;;4035915;29;20398;-48
2023/11/20 12:35:27;;;;;;;;;;;15.30;95.60;;;;;;4038255;29;19942;-45
2023/11/20 12:38:09;;;;;;;;;;;15.30;95.40;;;;;;4037236;29;20398;-45
2023/11/20 12:40:51;;;;;;;;;;;15.30;95.60;;;;;;4035833;29;19935;-44
2023/11/20 12:43:33;;;;;;;;;;;15.40;96.00;;;;;;4032918;29;19938;-45
2023/11/20 12:46:17;;;;;;;;;;;15.40;96.30;;;;;;4041277;29;20055;-47
2023/11/20 12:48:58;;;;;;;;;;;15.40;96.50;;;;;;4042237;29;20662;-47
2023/11/20 12:51:39;;;;;;;;;;;15.40;96.50;;;;;;4027394;29;20039;-53
2023/11/20 12:54:20;;;;;;;;;;;15.40;96.40;;;;;;4037288;29;19938;-51
2023/11/20 12:57:01;;;;;;;;;;;15.40;96.20;;;;;;4024577;29;19934;-50
2023/11/20 12:59:46;;;;;;;;;;;15.50;96.10;;;;;;4038958;29;19939;-50
2023/11/20 13:02:32;;;;;;;;;;;15.40;96.00;;;;;;4041692;29;19939;-50
2023/11/20 13:05:13;;;;;;;;;;;15.50;96.00;;;;;;4029397;29;19996;-53
2023/11/20 13:07:57;;;;;;;;;;;15.40;95.90;;;;;;4040726;29;19954;-52
2023/11/20 13:10:38;;;;;;;;;;;15.50;95.80;;;;;;4040357;29;19997;-53
2023/11/20 13:13:20;;;;;;;;;;;15.50;95.80;;;;;;4036161;29;19939;-52
2023/11/20 13:16:03;;;;;;;;;;;15.50;95.70;;;;;;4025815;29;19939;-52
2023/11/20 13:18:49;;;;;;;;;;;15.50;95.70;;;;;;4040668;29;20095;-52
2023/11/20 13:21:30;;;;;;;;;;;15.40;95.60;;;;;;4032000;29;21050;-50
2023/11/20 13:24:13;;;;;;;;;;;15.40;95.60;;;;;;4039389;29;19943;-52
2023/11/20 13:26:54;;;;;;;;;;;15.40;95.60;;;;;;4036196;29;19935;-54
2023/11/20 13:29:35;;;;;;;;;;;15.40;95.90;;;;;;4017345;29;19939;-47
2023/11/20 13:32:22;;;;;;;;;;;15.40;95.50;;;;;;4036033;29;19946;-48
2023/11/20 13:35:06;;;;;;;;;;;15.40;95.50;;;;;;4030789;29;19939;-47
2023/11/20 13:37:47;;;;;;;;;;;15.40;95.50;;;;;;4030386;29;19935;-45
2023/11/20 13:40:28;;;;;;;;;;;15.40;95.50;;;;;;4030726;29;19938;-45
2023/11/20 13:43:16;;;;;;;;;;;15.40;95.50;;;;;;4026234;29;20473;-45
2023/11/20 13:45:58;;;;;;;;;;;15.40;95.50;;;;;;4032612;29;19938;-47
2023/11/20 13:48:39;;;;;;;;;;;15.40;95.80;;;;;;4026283;29;20375;-47
2023/11/20 13:51:22;;;;;;;;;;;15.40;95.40;;;;;;4033858;29;19951;-48
2023/11/20 13:54:03;;;;;;;;;;;15.40;95.40;;;;;;4028447;29;20019;-47
2023/11/20 13:56:44;;;;;;;;;;;15.40;95.40;;;;;;4026895;29;19983;-45
2023/11/20 13:59:25;;;;;;;;;;;15.40;95.40;;;;;;4040791;29;19942;-45
2023/11/20 14:02:07;;;;;;;;;;;15.40;95.40;;;;;;4030598;29;19938;-46
2023/11/20 14:04:49;;;;;;;;;;;15.40;95.40;;;;;;4029027;29;19938;-46
2023/11/20 14:07:32;;;;;;;;;;;15.40;95.40;;;;;;4032318;29;19935;-46
2023/11/20 14:10:12;;;;;;;;;;;15.40;95.40;;;;;;4040767;29;20079;-46
2023/11/20 14:12:54;;;;;;;;;;;15.40;95.30;;;;;;4024052;29;20035;-45
2023/11/20 14:15:35;;;;;;;;;;;15.40;95.30;;;;;;4014937;29;19954;-45
2023/11/20 14:18:15;;;;;;;;;;;15.40;95.30;;;;;;4028355;29;20287;-46
2023/11/20 14:20:56;;;;;;;;;;;15.40;95.30;;;;;;4024446;29;20556;-45
2023/11/20 14:23:39;;;;;;;;;;;15.40;95.40;;;;;;4027456;29;19943;-46
2023/11/20 14:26:20;;;;;;;;;;;15.40;95.30;;;;;;4032265;29;19934;-46
2023/11/20 14:29:05;;;;;;;;;;;15.40;95.30;;;;;;4025589;29;20307;-46
2023/11/20 14:31:46;;;;;;;;;;;15.40;95.30;;;;;;4013598;29;19983;-45
2023/11/20 14:34:27;;;;;;;;;;;15.40;95.30;;;;;;4022426;29;20296;-47
2023/11/20 14:37:08;;;;;;;;;;;15.40;95.30;;;;;;4026382;29;20085;-46
2023/11/20 14:39:50;;;;;;;;;;;15.40;95.30;;;;;;4027696;29;20019;-45
2023/11/20 14:42:31;;;;;;;;;;;15.30;95.30;;;;;;4022615;29;20408;-49
2023/11/20 14:45:13;;;;;;;;;;;15.40;95.30;;;;;;4033143;29;20244;-49
2023/11/20 14:47:53;;;;;;;;;;;15.30;95.30;;;;;;4039165;29;19938;-54
2023/11/20 14:50:34;;;;;;;;;;;15.30;95.30;;;;;;4026667;29;19942;-48
2023/11/20 14:53:15;;;;;;;;;;;15.40;95.40;;;;;;4014680;29;19957;-49
2023/11/20 14:55:57;;;;;;;;;;;15.30;95.40;;;;;;4039398;29;20078;-48
2023/11/20 14:58:38;;;;;;;;;;;15.40;95.40;;;;;;4030733;29;19967;-47
2023/11/20 15:01:19;;;;;;;;;;;15.40;95.40;;;;;;4024831;29;19935;-46
2023/11/20 15:04:00;;;;;;;;;;;15.40;95.40;;;;;;4028422;29;20007;-48
2023/11/20 15:06:43;;;;;;;;;;;15.40;95.40;;;;;;4026727;29;20075;-47
2023/11/20 15:09:25;;;;;;;;;;;15.40;95.30;;;;;;4028637;29;19991;-47
2023/11/20 15:12:08;;;;;;;;;;;15.40;95.30;;;;;;4025088;29;20411;-47
2023/11/20 15:14:49;;;;;;;;;;;15.40;95.70;;;;;;4024650;29;19939;-47
2023/11/20 15:17:31;;;;;;;;;;;15.40;95.40;;;;;;4025337;29;19942;-46
2023/11/20 15:20:13;;;;;;;;;;;15.40;95.40;;;;;;4028415;29;19982;-46
2023/11/20 15:22:56;;;;;;;;;;;15.40;95.40;;;;;;4033144;29;20059;-49
2023/11/20 15:25:40;;;;;;;;;;;15.40;95.40;;;;;;4020455;29;19934;-47
2023/11/20 15:28:22;;;;;;;;;;;15.40;95.80;;;;;;4032771;29;19950;-47
2023/11/20 15:31:03;;;;;;;;;;;15.40;95.50;;;;;;4017686;29;19935;-47
2023/11/20 15:33:44;;;;;;;;;;;15.40;95.50;;;;;;4031520;29;20120;-46
2023/11/20 15:36:25;;;;;;;;;;;15.40;95.50;;;;;;4038584;29;19987;-48
2023/11/20 15:39:07;;;;;;;;;;;15.40;95.50;;;;;;4026079;29;19938;-47
2023/11/20 15:41:49;;;;;;;;;;;15.30;95.50;;;;;;4014281;29;19987;-48